createdAt,value
2022-12-03T00:02:40.262Z,100903.45
2022-12-03T00:07:44.189Z,100904.80
2022-12-03T00:12:47.726Z,100903.92
2022-12-03T00:17:51.567Z,100907.34
2022-12-03T00:22:55.315Z,100909.20
2022-12-03T00:27:58.943Z,100906.75
2022-12-03T00:33:02.678Z,100903.83
2022-12-03T00:38:06.262Z,100900.67
2022-12-03T00:43:09.873Z,100897.52
2022-12-03T00:48:13.608Z,100897.88
2022-12-03T00:53:19.039Z,100896.18
2022-12-03T00:58:24.924Z,100899.77
2022-12-03T01:03:29.329Z,100892.04
2022-12-03T01:08:33.886Z,100890.98
2022-12-03T01:13:38.013Z,100888.83
2022-12-03T01:18:42.204Z,100890.11
2022-12-03T01:23:46.783Z,100886.61
2022-12-03T01:28:51.090Z,100887.73
2022-12-03T01:33:56.652Z,100883.44
2022-12-03T01:39:01.895Z,100884.06
2022-12-03T01:44:16.381Z,100889.52
2022-12-03T01:49:26.546Z,100888.54
2022-12-03T01:54:42.515Z,100884.29
2022-12-03T01:59:48.148Z,100876.25
2022-12-03T02:04:56.116Z,100872.55
2022-12-03T02:10:02.414Z,100873.82
2022-12-03T02:15:07.515Z,100874.99
2022-12-03T02:20:13.537Z,100870.86
2022-12-03T02:25:28.743Z,100869.14
2022-12-03T02:30:33.753Z,100868.70
2022-12-03T02:35:39.387Z,100874.68
2022-12-03T02:40:45.973Z,100868.88
2022-12-03T02:45:57.308Z,100867.95
2022-12-03T02:51:06.297Z,100863.36
2022-12-03T02:56:14.890Z,100863.36
2022-12-03T03:01:19.684Z,100858.56
2022-12-03T03:06:25.827Z,100857.50
2022-12-03T03:11:29.520Z,100857.21
2022-12-03T03:16:35.419Z,100854.23
2022-12-03T03:21:40.609Z,100854.30
2022-12-03T03:26:44.568Z,100857.19
2022-12-03T03:31:49.415Z,100855.98
2022-12-03T03:36:55.010Z,100853.79
2022-12-03T03:41:59.819Z,100852.38
2022-12-03T03:47:04.741Z,100850.54
2022-12-03T03:52:12.376Z,100847.63
2022-12-03T03:57:18.341Z,100838.89
2022-12-03T04:02:26.232Z,100835.13
2022-12-03T04:07:30.769Z,100832.73
2022-12-03T04:12:58.687Z,100832.20
2022-12-03T04:18:22.631Z,100831.99
2022-12-03T04:23:30.883Z,100831.45
2022-12-03T04:28:52.544Z,100829.17
2022-12-03T04:34:15.146Z,100829.92
2022-12-03T04:39:20.300Z,100827.42
2022-12-03T04:44:36.641Z,100829.02
2022-12-03T04:49:45.408Z,100828.25
2022-12-03T04:54:50.414Z,100822.73
2022-12-03T04:59:54.869Z,100819.42
2022-12-03T05:04:59.799Z,100813.92
2022-12-03T05:10:05.353Z,100809.83
2022-12-03T05:15:09.302Z,100811.10
2022-12-03T05:20:33.575Z,100807.20
2022-12-03T05:25:39.246Z,100808.35
2022-12-03T05:30:43.439Z,100807.00
2022-12-03T05:40:43.530Z,100817.13
2022-12-03T05:45:48.596Z,100814.78
2022-12-03T05:50:53.410Z,100816.99
2022-12-03T05:55:58.861Z,100815.64
2022-12-03T06:01:03.845Z,100811.28
2022-12-03T06:06:08.741Z,100811.75
2022-12-03T06:11:14.441Z,100813.30
2022-12-03T06:16:19.442Z,100815.14
2022-12-03T06:21:25.576Z,100817.44
2022-12-03T06:26:33.712Z,100816.55
2022-12-03T06:31:38.342Z,100820.28
2022-12-03T06:36:42.722Z,100818.72
2022-12-03T06:41:47.754Z,100820.20
2022-12-03T06:46:52.348Z,100823.48
2022-12-03T06:51:57.313Z,100822.98
2022-12-03T06:57:01.602Z,100820.70
2022-12-03T07:02:07.289Z,100819.86
2022-12-03T07:07:12.596Z,100817.38
2022-12-03T07:12:17.218Z,100815.23
2022-12-03T07:17:22.597Z,100811.42
2022-12-03T07:22:28.351Z,100809.24
2022-12-03T07:27:33.718Z,100801.11
2022-12-03T07:32:37.147Z,100804.26
2022-12-03T07:37:40.240Z,100798.54
2022-12-03T07:42:44.556Z,100800.52
2022-12-03T07:47:48.414Z,100796.88
2022-12-03T07:52:51.678Z,100795.73
2022-12-03T07:57:55.902Z,100792.32
2022-12-03T08:03:00.505Z,100788.80
2022-12-03T08:08:04.447Z,100795.76
2022-12-03T08:13:16.367Z,100801.96
2022-12-03T08:18:22.418Z,100804.48
2022-12-03T08:23:26.938Z,100806.95
2022-12-03T08:28:32.504Z,100802.52
2022-12-03T08:33:38.303Z,100800.41
2022-12-03T08:38:55.250Z,100804.23
2022-12-03T08:43:59.264Z,100808.11
2022-12-03T08:49:17.628Z,100803.67
2022-12-03T08:54:21.494Z,100798.14
2022-12-03T08:59:33.556Z,100805.83
2022-12-03T09:04:47.044Z,100810.20
2022-12-03T09:09:51.497Z,100813.10
2022-12-03T09:14:56.344Z,100808.49
2022-12-03T09:20:00.239Z,100796.73
2022-12-03T09:25:04.440Z,100789.55
2022-12-03T09:30:08.735Z,100779.27
2022-12-03T09:35:13.285Z,100766.46
2022-12-03T09:40:17.229Z,100768.45
2022-12-03T09:45:21.387Z,100772.91
2022-12-03T09:50:28.041Z,100765.45
2022-12-03T09:55:32.802Z,100763.44
2022-12-03T10:00:37.633Z,100766.42
2022-12-03T10:05:47.803Z,100754.45
2022-12-03T10:10:58.011Z,100753.80
2022-12-03T10:16:03.523Z,100754.54
2022-12-03T10:21:27.243Z,100760.04
2022-12-03T10:26:42.408Z,100757.14
2022-12-03T10:31:56.217Z,100753.68
2022-12-03T10:37:17.135Z,100754.01
2022-12-03T10:42:22.956Z,100751.63
2022-12-03T10:47:29.464Z,100743.06
2022-12-03T10:52:35.182Z,100750.89
2022-12-03T10:57:45.319Z,100754.36
2022-12-03T11:02:56.812Z,100752.83
2022-12-03T11:08:03.289Z,100745.20
2022-12-03T11:13:34.937Z,100745.94
2022-12-03T11:18:40.090Z,100748.77
2022-12-03T11:23:44.802Z,100739.27
2022-12-03T11:28:55.301Z,100735.45
2022-12-03T11:39:53.285Z,100737.80
2022-12-03T11:50:45.155Z,100724.71
2022-12-03T12:01:38.902Z,100717.73
2022-12-03T12:06:50.226Z,100717.05
2022-12-03T12:12:38.707Z,100717.79
2022-12-03T12:17:44.058Z,100719.52
2022-12-03T12:22:48.879Z,100723.92
2022-12-03T12:33:39.851Z,100724.48
2022-12-03T12:38:44.304Z,100717.27
2022-12-03T12:43:49.549Z,100715.75
2022-12-03T12:48:59.579Z,100719.41
2022-12-03T12:54:12.487Z,100719.32
2022-12-03T12:59:21.924Z,100716.98
2022-12-03T13:09:56.854Z,100714.39
2022-12-03T13:26:13.155Z,100721.91
2022-12-03T13:37:26.587Z,100724.48
2022-12-03T13:42:42.480Z,100723.44
2022-12-03T13:47:50.968Z,100727.98
2022-12-03T13:58:13.745Z,100726.12
2022-12-03T14:03:18.631Z,100729.55
2022-12-03T14:08:24.147Z,100730.09
2022-12-03T14:13:32.465Z,100725.08
2022-12-03T14:18:55.550Z,100721.66
2022-12-03T14:24:00.514Z,100719.13
2022-12-03T14:29:08.749Z,100708.73
2022-12-03T14:34:14.452Z,100711.35
2022-12-03T14:39:25.429Z,100715.06
2022-12-03T14:44:29.762Z,100704.50
2022-12-03T14:49:35.649Z,100688.58
2022-12-03T14:54:43.049Z,100689.73
2022-12-03T14:59:47.609Z,100689.02
2022-12-03T15:04:52.134Z,100688.64
2022-12-03T15:09:56.489Z,100688.80
2022-12-03T15:15:01.186Z,100688.48
2022-12-03T15:20:09.192Z,100684.31
2022-12-03T15:25:13.952Z,100702.85
2022-12-03T15:30:18.963Z,100717.09
2022-12-03T15:35:32.276Z,100710.39
2022-12-03T15:40:45.267Z,100700.68
2022-12-03T15:45:50.047Z,100724.65
2022-12-03T15:50:54.701Z,100728.62
2022-12-03T15:55:58.593Z,100722.69
2022-12-03T16:01:02.711Z,100720.80
2022-12-03T16:11:46.665Z,100734.19
2022-12-03T16:22:17.443Z,100731.67
2022-12-03T16:27:27.022Z,100726.48
2022-12-03T16:48:49.149Z,100705.05
2022-12-03T16:53:55.622Z,100705.05
2022-12-03T16:59:00.210Z,100703.09
2022-12-03T17:04:04.652Z,100708.94
2022-12-03T17:09:09.137Z,100705.45
2022-12-03T17:14:13.461Z,100703.88
2022-12-03T17:19:18.103Z,100704.98
2022-12-03T17:24:22.922Z,100706.60
2022-12-03T17:29:28.365Z,100707.79
2022-12-03T17:34:32.436Z,100706.86
2022-12-03T17:39:37.450Z,100705.65
2022-12-03T17:44:41.565Z,100695.04
2022-12-03T17:49:48.133Z,100691.10
2022-12-03T17:55:10.802Z,100695.42
2022-12-03T18:00:17.534Z,100690.42
2022-12-03T18:05:23.351Z,100696.52
2022-12-03T18:10:27.833Z,100693.40
2022-12-03T18:15:33.582Z,100691.20
2022-12-03T18:20:38.655Z,100689.36
2022-12-03T18:25:43.586Z,100690.65
2022-12-03T18:30:52.444Z,100689.52
2022-12-03T18:35:59.094Z,100680.02
2022-12-03T18:41:05.900Z,100680.94
2022-12-03T18:46:51.313Z,100681.63
2022-12-03T18:51:40.789Z,100682.03
2022-12-03T18:56:45.005Z,100679.90
2022-12-03T19:01:52.764Z,100682.40
2022-12-03T19:06:58.510Z,100684.48
2022-12-03T19:12:03.437Z,100681.42
2022-12-03T19:17:10.173Z,100681.90
2022-12-03T19:22:15.478Z,100681.21
2022-12-03T19:27:20.201Z,100676.17
2022-12-03T19:32:25.447Z,100683.89
2022-12-03T19:37:34.428Z,100688.63
2022-12-03T19:42:39.591Z,100689.21
2022-12-03T19:47:43.919Z,100688.42
2022-12-03T19:52:47.707Z,100683.32
2022-12-03T19:57:51.185Z,100679.18
2022-12-03T20:02:56.058Z,100672.57
2022-12-03T20:08:01.064Z,100666.83
2022-12-03T20:13:07.352Z,100667.58
2022-12-03T20:18:12.577Z,100666.46
2022-12-03T20:23:17.457Z,100667.07
2022-12-03T20:28:25.042Z,100662.73
2022-12-03T20:33:30.144Z,100669.38
2022-12-03T20:38:34.922Z,100674.67
2022-12-03T20:43:41.970Z,100666.14
2022-12-03T20:48:48.381Z,100660.83
2022-12-03T20:53:54.325Z,100660.83
2022-12-03T20:59:09.392Z,100661.02
2022-12-03T21:04:17.209Z,100657.98
2022-12-03T21:09:22.807Z,100656.91
2022-12-03T21:14:28.578Z,100660.97
2022-12-03T21:19:33.382Z,100660.35
2022-12-03T21:24:38.414Z,100654.94
2022-12-03T21:29:43.306Z,100657.82
2022-12-03T21:34:47.724Z,100658.63
2022-12-03T21:39:51.548Z,100655.13
2022-12-03T21:44:55.926Z,100650.42
2022-12-03T21:49:59.353Z,100648.37
2022-12-03T21:55:03.205Z,100640.95
2022-12-03T22:00:09.881Z,100634.81
2022-12-03T22:05:14.607Z,100637.46
2022-12-03T22:10:18.730Z,100631.54
2022-12-03T22:15:22.218Z,100627.81
2022-12-03T22:20:25.757Z,100632.39
2022-12-03T22:25:30.925Z,100629.56
2022-12-03T22:30:34.817Z,100630.79
2022-12-03T22:35:39.132Z,100627.59
2022-12-03T22:40:42.886Z,100629.80
2022-12-03T22:45:46.552Z,100628.80
2022-12-03T22:50:51.777Z,100627.88
2022-12-03T22:55:58.606Z,100626.88
2022-12-03T23:01:03.171Z,100619.68
2022-12-03T23:06:12.246Z,100628.35
2022-12-03T23:11:16.930Z,100628.66
2022-12-03T23:16:26.692Z,100620.30
2022-12-03T23:21:33.494Z,100619.52
2022-12-03T23:26:39.726Z,100614.13
2022-12-03T23:31:43.518Z,100612.25
2022-12-03T23:36:47.064Z,100609.14
2022-12-03T23:41:52.405Z,100602.08
2022-12-03T23:46:55.908Z,100598.11
2022-12-03T23:52:00.827Z,100592.51
2022-12-03T23:57:05.215Z,100595.91
